Islandchallenger — P3WS9 — position and weather

sailwx.info

Track history (hours):
 
Tides and Currents Weather Stations Pressure Air Temp Water Temp Dewpoint Dewpoint Depression Visibility Wind Speed Wind Dir Waves Ship Positions

Islandchallenger

Last reported at 2017-Sep-19 08:52 UTC. Time now 2017-Sep-19 13:34 UTC.
Position N 34°40' E 033°04'.

Length 78 m; draft 5.4 m.

Type: Ship. MMSI: 210595000.

Date/timePositionNaut miles runAvg speedWind from/ knotsBaromVisibWave heightAir tempDewpointWater temp
2017-Sep-19 08:52N 34°40' E 033°04'0 0.0
2017-Sep-19 08:13N 34°40' E 033°04'0 0.0
2017-Sep-19 07:49N 34°40' E 033°04'0 0.0
2017-Sep-19 07:22N 34°40' E 033°04'0 0.0
2017-Sep-19 06:55N 34°40' E 033°04'0 0.0
2017-Sep-19 06:28N 34°40' E 033°04'0 0.0
2017-Sep-19 05:13N 34°40' E 033°04'0 0.0
2017-Sep-19 04:55N 34°40' E 033°04'0 0.0
2017-Sep-19 03:52N 34°40' E 033°04'0 0.0
2017-Sep-19 03:25N 34°40' E 033°04'0 0.0
2017-Sep-19 01:41N 34°40' E 033°04'1 4.5
2017-Sep-19 01:28N 34°39' E 033°03'1 3.1
2017-Sep-19 01:00N 34°39' E 033°01'0 0.0
2017-Sep-19 00:30N 34°39' E 033°01'0 0.0
2017-Sep-19 00:00N 34°39' E 033°01'0 0.2
2017-Sep-18 23:30N 34°39' E 033°01'1 1.4
2017-Sep-18 23:00N 34°39' E 033°02'0 0.3
2017-Sep-18 22:26N 34°39' E 033°02'1 0.1
2017-Sep-18 08:41N 34°40' E 033°03'0 0.0
2017-Sep-18 08:10N 34°40' E 033°03'0 0.0
2017-Sep-18 08:00N 34°40' E 033°03'0 0.1
2017-Sep-18 04:42N 34°40' E 033°04'0 0.0
2017-Sep-18 03:09N 34°40' E 033°04'0 0.2
2017-Sep-18 02:55N 34°40' E 033°04'1 1.2
2017-Sep-18 02:26N 34°40' E 033°03'0 0.0
2017-Sep-18 01:53N 34°40' E 033°03'0 0.0
2017-Sep-18 01:27N 34°40' E 033°03'0 0.0
2017-Sep-18 00:55N 34°40' E 033°03'0 0.0
2017-Sep-18 00:30N 34°40' E 033°03'0 0.0
2017-Sep-18 00:01N 34°40' E 033°03'0 0.0
2017-Sep-17 20:46N 34°40' E 033°03'0 0.8
2017-Sep-17 20:22N 34°40' E 033°04'0 0.0
2017-Sep-17 10:17N 34°40' E 033°03'0 0.1
2017-Sep-17 07:26N 34°40' E 033°03'0 0.0
2017-Sep-16 20:44N 34°40' E 033°03'0 0.0
2017-Sep-16 20:29N 34°40' E 033°03'0 0.0
2017-Sep-16 10:47N 34°40' E 033°03'0 0.0
2017-Sep-16 09:50N 34°40' E 033°03'0 0.0
2017-Sep-16 09:26N 34°40' E 033°03'0 0.0
2017-Sep-16 08:56N 34°40' E 033°03'0 0.0
2017-Sep-16 08:29N 34°40' E 033°03'0 0.0
2017-Sep-16 07:56N 34°40' E 033°03'0 0.0
2017-Sep-16 07:14N 34°40' E 033°03'0 0.0
2017-Sep-16 06:56N 34°40' E 033°03'0 0.0
2017-Sep-16 01:44N 34°40' E 033°03'0 0.0
2017-Sep-15 19:24N 34°40' E 033°03'1 0.6
2017-Sep-15 17:54N 34°40' E 033°04'1 0.3
2017-Sep-15 15:56N 34°40' E 033°03'3 5.8
2017-Sep-15 15:28N 34°41' E 033°07'3 7.2
2017-Sep-15 15:00N 34°41' E 033°11'4 7.1
2017-Sep-15 14:23N 34°41' E 033°16'3 7.1
2017-Sep-15 14:00N 34°41' E 033°19'13 0.9
2017-Sep-15 00:04N 34°40' E 033°04'0 0.5
2017-Sep-14 23:31N 34°40' E 033°03'0 0.0
2017-Sep-14 23:18N 34°40' E 033°03'0 0.0
2017-Sep-14 22:04N 34°40' E 033°03'0 0.0
2017-Sep-14 21:48N 34°40' E 033°03'0 0.0
2017-Sep-14 20:21N 34°40' E 033°03'0 0.1
2017-Sep-14 20:00N 34°40' E 033°03'0 0.0
2017-Sep-14 19:19N 34°40' E 033°03'0 0.0
2017-Sep-14 18:30N 34°40' E 033°03'0 0.0
2017-Sep-14 18:00N 34°40' E 033°03'0 0.0
2017-Sep-14 16:54N 34°40' E 033°03'0 0.0
2017-Sep-14 16:21N 34°40' E 033°03'0 0.9
2017-Sep-14 16:00N 34°40' E 033°03'0 0.3
2017-Sep-14 15:30N 34°40' E 033°03'0 0.6
2017-Sep-14 14:58N 34°40' E 033°04'32 7.2
2017-Sep-14 10:29N 34°52' E 033°40'3 6.6
2017-Sep-14 09:59N 34°56' E 033°39'2 0.1
2017-Sep-13 16:59N 34°56' E 033°41'0 0.0
2017-Sep-13 16:25N 34°56' E 033°41'0 0.0
2017-Sep-13 15:55N 34°56' E 033°41'0 0.0
2017-Sep-13 15:13N 34°56' E 033°41'0 0.0
2017-Sep-13 15:00N 34°56' E 033°41'0 0.0
2017-Sep-13 14:30N 34°56' E 033°41'0 0.0
2017-Sep-13 13:39N 34°56' E 033°41'0 0.0
2017-Sep-13 13:24N 34°56' E 033°41'0 0.0
2017-Sep-13 13:00N 34°56' E 033°41'9 0.6
2017-Sep-12 20:23N 34°47' E 033°38'4 8.4
2017-Sep-12 19:52N 34°46' E 033°33'3 8.2
2017-Sep-12 19:30N 34°44' E 033°29'4 8.1
2017-Sep-12 19:00N 34°42' E 033°25'4 8.0
2017-Sep-12 18:30N 34°41' E 033°20'4 8.3
2017-Sep-12 18:00N 34°40' E 033°15'10 5.1
2017-Sep-12 16:07N 34°40' E 033°04'0 0.0
2017-Sep-12 16:00N 34°40' E 033°04'0 0.0
2017-Sep-12 15:14N 34°40' E 033°04'0 0.0
2017-Sep-12 14:53N 34°40' E 033°04'0 0.1
2017-Sep-12 14:27N 34°40' E 033°04'0 1.0
2017-Sep-12 14:00N 34°40' E 033°03'0 0.0
2017-Sep-12 13:30N 34°40' E 033°03'0 0.0
2017-Sep-12 13:00N 34°40' E 033°03'0 0.5
2017-Sep-12 12:30N 34°40' E 033°03'2 3.1
2017-Sep-12 12:00N 34°39' E 033°01'0 0.0
2017-Sep-12 11:30N 34°39' E 033°01'0 0.0
2017-Sep-12 11:00N 34°39' E 033°01'0 0.0
2017-Sep-12 10:30N 34°39' E 033°01'0 0.0
2017-Sep-12 10:00N 34°39' E 033°01'0 0.0
2017-Sep-12 09:30N 34°39' E 033°01'0 0.0
2017-Sep-12 09:00N 34°39' E 033°01'0 0.0
2017-Sep-12 08:30N 34°39' E 033°01'0 0.0
2017-Sep-12 08:00N 34°39' E 033°01'0 0.0
2017-Sep-12 07:30N 34°39' E 033°01'1 2.9
2017-Sep-12 07:00N 34°39' E 033°03'0 0.0
2017-Sep-11 16:55N 34°40' E 033°03'0 0.3
2017-Sep-11 16:27N 34°40' E 033°03'0 0.0
2017-Sep-11 15:58N 34°40' E 033°03'0 0.0
2017-Sep-11 15:30N 34°40' E 033°03'0 0.0
2017-Sep-11 15:00N 34°40' E 033°03'0 0.0
2017-Sep-11 14:30N 34°40' E 033°03'2 3.7
2017-Sep-11 14:00N 34°39' E 033°01'0 0.0
2017-Sep-11 13:30N 34°39' E 033°01'0 0.0
2017-Sep-11 13:00N 34°39' E 033°01'2 3.8
2017-Sep-11 12:29N 34°40' E 033°03'2 0.7
2017-Sep-11 10:22N 34°40' E 033°05'0 0.0
2017-Sep-11 09:42N 34°40' E 033°05'0 0.0
2017-Sep-11 08:14N 34°40' E 033°05'2 1.7
2017-Sep-11 06:58N 34°39' E 033°03'1 3.1
2017-Sep-11 06:30N 34°39' E 033°01'0 0.0
2017-Sep-11 06:00N 34°39' E 033°01'0 0.0
2017-Sep-11 05:30N 34°39' E 033°01'0 0.0
2017-Sep-11 05:00N 34°39' E 033°01'1 2.5
2017-Sep-11 04:30N 34°39' E 033°02'1 0.2
2017-Sep-10 23:00N 34°40' E 033°04'0 0.4
2017-Sep-10 22:11N 34°40' E 033°03'0 0.0
2017-Sep-10 21:59N 34°40' E 033°03'0 0.0
2017-Sep-10 21:23N 34°40' E 033°03'0 0.0
2017-Sep-10 20:56N 34°40' E 033°03'0 0.0
2017-Sep-10 20:11N 34°40' E 033°03'0 0.0
2017-Sep-10 19:50N 34°40' E 033°03'0 0.0
2017-Sep-10 19:29N 34°40' E 033°03'0 0.0
2017-Sep-10 18:56N 34°40' E 033°03'0 0.0
2017-Sep-10 18:26N 34°40' E 033°03'0 0.0
2017-Sep-10 17:32N 34°40' E 033°03'0 0.0
2017-Sep-10 17:29N 34°40' E 033°03'0 0.0
2017-Sep-10 16:56N 34°40' E 033°03'1 0.1
2017-Sep-10 11:03N 34°40' E 033°03'0 0.1
2017-Sep-10 11:00N 34°40' E 033°03'0 0.0
2017-Sep-10 10:12N 34°40' E 033°03'0 0.0
2017-Sep-10 09:54N 34°40' E 033°03'0 0.0
2017-Sep-10 08:18N 34°40' E 033°03'0 0.0
2017-Sep-09 09:39N 34°40' E 033°03'0 0.1
2017-Sep-09 09:21N 34°40' E 033°03'0 0.0
2017-Sep-09 08:57N 34°40' E 033°03'  
Track history (hours):
 
Tides and Currents Weather Stations Pressure Air Temp Water Temp Dewpoint Dewpoint Depression Visibility Wind Speed Wind Dir Waves Ship Positions

Islandchallenger

Last reported at 2017-Sep-19 08:52 UTC. Time now 2017-Sep-19 13:34 UTC.
Position N 34°40' E 033°04'.

Length 78 m; draft 5.4 m.

Type: Ship. MMSI: 210595000.

Date/timePositionNaut miles runAvg speedWind from/ knotsBaromVisibWave heightAir tempDewpointWater temp
2017-Sep-19 08:52N 34°40' E 033°04'0 0.0
2017-Sep-19 08:13N 34°40' E 033°04'0 0.0
2017-Sep-19 07:49N 34°40' E 033°04'0 0.0
2017-Sep-19 07:22N 34°40' E 033°04'0 0.0
2017-Sep-19 06:55N 34°40' E 033°04'0 0.0
2017-Sep-19 06:28N 34°40' E 033°04'0 0.0
2017-Sep-19 05:13N 34°40' E 033°04'0 0.0
2017-Sep-19 04:55N 34°40' E 033°04'0 0.0
2017-Sep-19 03:52N 34°40' E 033°04'0 0.0
2017-Sep-19 03:25N 34°40' E 033°04'0 0.0
2017-Sep-19 01:41N 34°40' E 033°04'1 4.5
2017-Sep-19 01:28N 34°39' E 033°03'1 3.1
2017-Sep-19 01:00N 34°39' E 033°01'0 0.0
2017-Sep-19 00:30N 34°39' E 033°01'0 0.0
2017-Sep-19 00:00N 34°39' E 033°01'0 0.2
2017-Sep-18 23:30N 34°39' E 033°01'1 1.4
2017-Sep-18 23:00N 34°39' E 033°02'0 0.3
2017-Sep-18 22:26N 34°39' E 033°02'1 0.1
2017-Sep-18 08:41N 34°40' E 033°03'0 0.0
2017-Sep-18 08:10N 34°40' E 033°03'0 0.0
2017-Sep-18 08:00N 34°40' E 033°03'0 0.1
2017-Sep-18 04:42N 34°40' E 033°04'0 0.0
2017-Sep-18 03:09N 34°40' E 033°04'0 0.2
2017-Sep-18 02:55N 34°40' E 033°04'1 1.2
2017-Sep-18 02:26N 34°40' E 033°03'0 0.0
2017-Sep-18 01:53N 34°40' E 033°03'0 0.0
2017-Sep-18 01:27N 34°40' E 033°03'0 0.0
2017-Sep-18 00:55N 34°40' E 033°03'0 0.0
2017-Sep-18 00:30N 34°40' E 033°03'0 0.0
2017-Sep-18 00:01N 34°40' E 033°03'0 0.0
2017-Sep-17 20:46N 34°40' E 033°03'0 0.8
2017-Sep-17 20:22N 34°40' E 033°04'0 0.0
2017-Sep-17 10:17N 34°40' E 033°03'0 0.1
2017-Sep-17 07:26N 34°40' E 033°03'0 0.0
2017-Sep-16 20:44N 34°40' E 033°03'0 0.0
2017-Sep-16 20:29N 34°40' E 033°03'0 0.0
2017-Sep-16 10:47N 34°40' E 033°03'0 0.0
2017-Sep-16 09:50N 34°40' E 033°03'0 0.0
2017-Sep-16 09:26N 34°40' E 033°03'0 0.0
2017-Sep-16 08:56N 34°40' E 033°03'0 0.0
2017-Sep-16 08:29N 34°40' E 033°03'0 0.0
2017-Sep-16 07:56N 34°40' E 033°03'0 0.0
2017-Sep-16 07:14N 34°40' E 033°03'0 0.0
2017-Sep-16 06:56N 34°40' E 033°03'0 0.0
2017-Sep-16 01:44N 34°40' E 033°03'0 0.0
2017-Sep-15 19:24N 34°40' E 033°03'1 0.6
2017-Sep-15 17:54N 34°40' E 033°04'1 0.3
2017-Sep-15 15:56N 34°40' E 033°03'3 5.8
2017-Sep-15 15:28N 34°41' E 033°07'3 7.2
2017-Sep-15 15:00N 34°41' E 033°11'4 7.1
2017-Sep-15 14:23N 34°41' E 033°16'3 7.1
2017-Sep-15 14:00N 34°41' E 033°19'13 0.9
2017-Sep-15 00:04N 34°40' E 033°04'0 0.5
2017-Sep-14 23:31N 34°40' E 033°03'0 0.0
2017-Sep-14 23:18N 34°40' E 033°03'0 0.0
2017-Sep-14 22:04N 34°40' E 033°03'0 0.0
2017-Sep-14 21:48N 34°40' E 033°03'0 0.0
2017-Sep-14 20:21N 34°40' E 033°03'0 0.1
2017-Sep-14 20:00N 34°40' E 033°03'0 0.0
2017-Sep-14 19:19N 34°40' E 033°03'0 0.0
2017-Sep-14 18:30N 34°40' E 033°03'0 0.0
2017-Sep-14 18:00N 34°40' E 033°03'0 0.0
2017-Sep-14 16:54N 34°40' E 033°03'0 0.0
2017-Sep-14 16:21N 34°40' E 033°03'0 0.9
2017-Sep-14 16:00N 34°40' E 033°03'0 0.3
2017-Sep-14 15:30N 34°40' E 033°03'0 0.6
2017-Sep-14 14:58N 34°40' E 033°04'32 7.2
2017-Sep-14 10:29N 34°52' E 033°40'3 6.6
2017-Sep-14 09:59N 34°56' E 033°39'2 0.1
2017-Sep-13 16:59N 34°56' E 033°41'0 0.0
2017-Sep-13 16:25N 34°56' E 033°41'0 0.0
2017-Sep-13 15:55N 34°56' E 033°41'0 0.0
2017-Sep-13 15:13N 34°56' E 033°41'0 0.0
2017-Sep-13 15:00N 34°56' E 033°41'0 0.0
2017-Sep-13 14:30N 34°56' E 033°41'0 0.0
2017-Sep-13 13:39N 34°56' E 033°41'0 0.0
2017-Sep-13 13:24N 34°56' E 033°41'0 0.0
2017-Sep-13 13:00N 34°56' E 033°41'9 0.6
2017-Sep-12 20:23N 34°47' E 033°38'4 8.4
2017-Sep-12 19:52N 34°46' E 033°33'3 8.2
2017-Sep-12 19:30N 34°44' E 033°29'4 8.1
2017-Sep-12 19:00N 34°42' E 033°25'4 8.0
2017-Sep-12 18:30N 34°41' E 033°20'4 8.3
2017-Sep-12 18:00N 34°40' E 033°15'10 5.1
2017-Sep-12 16:07N 34°40' E 033°04'0 0.0
2017-Sep-12 16:00N 34°40' E 033°04'0 0.0
2017-Sep-12 15:14N 34°40' E 033°04'0 0.0
2017-Sep-12 14:53N 34°40' E 033°04'0 0.1
2017-Sep-12 14:27N 34°40' E 033°04'0 1.0
2017-Sep-12 14:00N 34°40' E 033°03'0 0.0
2017-Sep-12 13:30N 34°40' E 033°03'0 0.0
2017-Sep-12 13:00N 34°40' E 033°03'0 0.5
2017-Sep-12 12:30N 34°40' E 033°03'2 3.1
2017-Sep-12 12:00N 34°39' E 033°01'0 0.0
2017-Sep-12 11:30N 34°39' E 033°01'0 0.0
2017-Sep-12 11:00N 34°39' E 033°01'0 0.0
2017-Sep-12 10:30N 34°39' E 033°01'0 0.0
2017-Sep-12 10:00N 34°39' E 033°01'0 0.0
2017-Sep-12 09:30N 34°39' E 033°01'0 0.0
2017-Sep-12 09:00N 34°39' E 033°01'0 0.0
2017-Sep-12 08:30N 34°39' E 033°01'0 0.0
2017-Sep-12 08:00N 34°39' E 033°01'0 0.0
2017-Sep-12 07:30N 34°39' E 033°01'1 2.9
2017-Sep-12 07:00N 34°39' E 033°03'0 0.0
2017-Sep-11 16:55N 34°40' E 033°03'0 0.3
2017-Sep-11 16:27N 34°40' E 033°03'0 0.0
2017-Sep-11 15:58N 34°40' E 033°03'0 0.0
2017-Sep-11 15:30N 34°40' E 033°03'0 0.0
2017-Sep-11 15:00N 34°40' E 033°03'0 0.0
2017-Sep-11 14:30N 34°40' E 033°03'2 3.7
2017-Sep-11 14:00N 34°39' E 033°01'0 0.0
2017-Sep-11 13:30N 34°39' E 033°01'0 0.0
2017-Sep-11 13:00N 34°39' E 033°01'2 3.8
2017-Sep-11 12:29N 34°40' E 033°03'2 0.7
2017-Sep-11 10:22N 34°40' E 033°05'0 0.0
2017-Sep-11 09:42N 34°40' E 033°05'0 0.0
2017-Sep-11 08:14N 34°40' E 033°05'2 1.7
2017-Sep-11 06:58N 34°39' E 033°03'1 3.1
2017-Sep-11 06:30N 34°39' E 033°01'0 0.0
2017-Sep-11 06:00N 34°39' E 033°01'0 0.0
2017-Sep-11 05:30N 34°39' E 033°01'0 0.0
2017-Sep-11 05:00N 34°39' E 033°01'1 2.5
2017-Sep-11 04:30N 34°39' E 033°02'1 0.2
2017-Sep-10 23:00N 34°40' E 033°04'0 0.4
2017-Sep-10 22:11N 34°40' E 033°03'0 0.0
2017-Sep-10 21:59N 34°40' E 033°03'0 0.0
2017-Sep-10 21:23N 34°40' E 033°03'0 0.0
2017-Sep-10 20:56N 34°40' E 033°03'0 0.0
2017-Sep-10 20:11N 34°40' E 033°03'0 0.0
2017-Sep-10 19:50N 34°40' E 033°03'0 0.0
2017-Sep-10 19:29N 34°40' E 033°03'0 0.0
2017-Sep-10 18:56N 34°40' E 033°03'0 0.0
2017-Sep-10 18:26N 34°40' E 033°03'0 0.0
2017-Sep-10 17:32N 34°40' E 033°03'0 0.0
2017-Sep-10 17:29N 34°40' E 033°03'0 0.0
2017-Sep-10 16:56N 34°40' E 033°03'1 0.1
2017-Sep-10 11:03N 34°40' E 033°03'0 0.1
2017-Sep-10 11:00N 34°40' E 033°03'0 0.0
2017-Sep-10 10:12N 34°40' E 033°03'0 0.0
2017-Sep-10 09:54N 34°40' E 033°03'0 0.0
2017-Sep-10 08:18N 34°40' E 033°03'0 0.0
2017-Sep-09 09:39N 34°40' E 033°03'0 0.1
2017-Sep-09 09:21N 34°40' E 033°03'0 0.0
2017-Sep-09 08:57N 34°40' E 033°03'  

Dump ship's entire track history